sensor_id;sensor_type;location;lat;lon;timestamp;P1;durP1;ratioP1;P2;durP2;ratioP2
39362;SDS011;25088;43.238;23.110;2023-11-18T00:01:58;0.20;;;0.20;;
39362;SDS011;25088;43.238;23.110;2023-11-18T00:04:24;0.20;;;0.20;;
39362;SDS011;25088;43.238;23.110;2023-11-18T00:06:50;0.20;;;0.20;;
39362;SDS011;25088;43.238;23.110;2023-11-18T00:09:16;0.20;;;0.20;;
39362;SDS011;25088;43.238;23.110;2023-11-18T00:11:42;0.20;;;0.20;;
39362;SDS011;25088;43.238;23.110;2023-11-18T00:14:08;0.20;;;0.20;;
39362;SDS011;25088;43.238;23.110;2023-11-18T00:16:36;0.20;;;0.20;;
39362;SDS011;25088;43.238;23.110;2023-11-18T00:19:02;0.20;;;0.20;;
39362;SDS011;25088;43.238;23.110;2023-11-18T00:21:30;0.20;;;0.20;;
39362;SDS011;25088;43.238;23.110;2023-11-18T00:23:56;0.20;;;0.20;;
39362;SDS011;25088;43.238;23.110;2023-11-18T00:26:21;0.20;;;0.20;;
39362;SDS011;25088;43.238;23.110;2023-11-18T00:28:47;0.20;;;0.20;;
39362;SDS011;25088;43.238;23.110;2023-11-18T00:31:13;0.20;;;0.20;;
39362;SDS011;25088;43.238;23.110;2023-11-18T00:33:39;0.20;;;0.20;;
39362;SDS011;25088;43.238;23.110;2023-11-18T00:36:05;0.20;;;0.20;;
39362;SDS011;25088;43.238;23.110;2023-11-18T00:38:31;0.20;;;0.20;;
39362;SDS011;25088;43.238;23.110;2023-11-18T00:40:57;0.17;;;0.17;;
39362;SDS011;25088;43.238;23.110;2023-11-18T00:43:22;0.20;;;0.20;;
39362;SDS011;25088;43.238;23.110;2023-11-18T00:45:48;0.20;;;0.20;;
39362;SDS011;25088;43.238;23.110;2023-11-18T00:48:13;0.10;;;0.10;;
39362;SDS011;25088;43.238;23.110;2023-11-18T00:50:39;0.20;;;0.20;;
39362;SDS011;25088;43.238;23.110;2023-11-18T00:53:05;0.20;;;0.20;;
39362;SDS011;25088;43.238;23.110;2023-11-18T00:55:31;0.20;;;0.20;;
39362;SDS011;25088;43.238;23.110;2023-11-18T00:57:57;0.20;;;0.20;;
39362;SDS011;25088;43.238;23.110;2023-11-18T01:00:23;0.20;;;0.20;;
39362;SDS011;25088;43.238;23.110;2023-11-18T01:02:51;0.20;;;0.20;;
39362;SDS011;25088;43.238;23.110;2023-11-18T01:05:18;0.20;;;0.20;;
39362;SDS011;25088;43.238;23.110;2023-11-18T01:07:44;0.20;;;0.20;;
39362;SDS011;25088;43.238;23.110;2023-11-18T01:10:10;0.20;;;0.20;;
39362;SDS011;25088;43.238;23.110;2023-11-18T01:12:36;0.20;;;0.20;;
39362;SDS011;25088;43.238;23.110;2023-11-18T01:15:02;0.20;;;0.20;;
39362;SDS011;25088;43.238;23.110;2023-11-18T01:17:29;0.20;;;0.20;;
39362;SDS011;25088;43.238;23.110;2023-11-18T01:19:56;0.20;;;0.20;;
39362;SDS011;25088;43.238;23.110;2023-11-18T01:22:22;0.20;;;0.20;;
39362;SDS011;25088;43.238;23.110;2023-11-18T01:24:47;0.20;;;0.20;;
39362;SDS011;25088;43.238;23.110;2023-11-18T01:27:13;0.20;;;0.20;;
39362;SDS011;25088;43.238;23.110;2023-11-18T01:29:38;0.10;;;0.10;;
39362;SDS011;25088;43.238;23.110;2023-11-18T01:32:04;0.20;;;0.20;;
39362;SDS011;25088;43.238;23.110;2023-11-18T01:34:35;0.20;;;0.20;;
39362;SDS011;25088;43.238;23.110;2023-11-18T01:37:01;0.20;;;0.20;;
39362;SDS011;25088;43.238;23.110;2023-11-18T01:39:26;0.20;;;0.20;;
39362;SDS011;25088;43.238;23.110;2023-11-18T01:41:52;0.20;;;0.20;;
39362;SDS011;25088;43.238;23.110;2023-11-18T01:44:18;0.20;;;0.20;;
39362;SDS011;25088;43.238;23.110;2023-11-18T01:46:49;0.20;;;0.20;;
39362;SDS011;25088;43.238;23.110;2023-11-18T01:49:14;0.20;;;0.20;;
39362;SDS011;25088;43.238;23.110;2023-11-18T01:51:41;0.20;;;0.20;;
39362;SDS011;25088;43.238;23.110;2023-11-18T01:54:10;0.20;;;0.20;;
39362;SDS011;25088;43.238;23.110;2023-11-18T01:56:40;0.20;;;0.20;;
39362;SDS011;25088;43.238;23.110;2023-11-18T01:59:11;0.22;;;0.22;;
39362;SDS011;25088;43.238;23.110;2023-11-18T02:01:43;0.30;;;0.30;;
39362;SDS011;25088;43.238;23.110;2023-11-18T02:04:13;0.20;;;0.20;;
39362;SDS011;25088;43.238;23.110;2023-11-18T02:06:39;0.25;;;0.25;;
39362;SDS011;25088;43.238;23.110;2023-11-18T02:09:04;0.22;;;0.22;;
39362;SDS011;25088;43.238;23.110;2023-11-18T02:11:31;0.30;;;0.30;;
39362;SDS011;25088;43.238;23.110;2023-11-18T02:14:20;0.30;;;0.30;;
39362;SDS011;25088;43.238;23.110;2023-11-18T02:16:49;0.30;;;0.30;;
39362;SDS011;25088;43.238;23.110;2023-11-18T02:19:21;0.30;;;0.30;;
39362;SDS011;25088;43.238;23.110;2023-11-18T02:21:49;0.30;;;0.30;;
39362;SDS011;25088;43.238;23.110;2023-11-18T02:24:26;0.30;;;0.30;;
39362;SDS011;25088;43.238;23.110;2023-11-18T02:26:53;0.30;;;0.30;;
39362;SDS011;25088;43.238;23.110;2023-11-18T02:29:21;0.22;;;0.22;;
39362;SDS011;25088;43.238;23.110;2023-11-18T02:31:47;0.20;;;0.20;;
39362;SDS011;25088;43.238;23.110;2023-11-18T02:34:18;0.30;;;0.30;;
39362;SDS011;25088;43.238;23.110;2023-11-18T02:36:48;0.30;;;0.30;;
39362;SDS011;25088;43.238;23.110;2023-11-18T02:39:21;0.30;;;0.30;;
39362;SDS011;25088;43.238;23.110;2023-11-18T02:41:53;0.30;;;0.30;;
39362;SDS011;25088;43.238;23.110;2023-11-18T02:44:21;0.30;;;0.30;;
39362;SDS011;25088;43.238;23.110;2023-11-18T02:46:50;0.30;;;0.30;;
39362;SDS011;25088;43.238;23.110;2023-11-18T02:49:16;0.30;;;0.30;;
39362;SDS011;25088;43.238;23.110;2023-11-18T02:51:42;0.30;;;0.30;;
39362;SDS011;25088;43.238;23.110;2023-11-18T02:54:12;0.30;;;0.30;;
39362;SDS011;25088;43.238;23.110;2023-11-18T02:56:38;0.20;;;0.20;;
39362;SDS011;25088;43.238;23.110;2023-11-18T02:59:03;0.30;;;0.30;;
39362;SDS011;25088;43.238;23.110;2023-11-18T03:01:32;0.30;;;0.30;;
39362;SDS011;25088;43.238;23.110;2023-11-18T03:04:04;0.30;;;0.30;;
39362;SDS011;25088;43.238;23.110;2023-11-18T03:06:30;0.30;;;0.30;;
39362;SDS011;25088;43.238;23.110;2023-11-18T03:08:57;0.30;;;0.30;;
39362;SDS011;25088;43.238;23.110;2023-11-18T03:11:22;0.30;;;0.30;;
39362;SDS011;25088;43.238;23.110;2023-11-18T03:13:48;0.30;;;0.30;;
39362;SDS011;25088;43.238;23.110;2023-11-18T03:16:13;0.30;;;0.30;;
39362;SDS011;25088;43.238;23.110;2023-11-18T03:18:40;0.30;;;0.30;;
39362;SDS011;25088;43.238;23.110;2023-11-18T03:21:06;0.30;;;0.30;;
39362;SDS011;25088;43.238;23.110;2023-11-18T03:23:37;0.40;;;0.40;;
39362;SDS011;25088;43.238;23.110;2023-11-18T03:26:03;0.30;;;0.30;;
39362;SDS011;25088;43.238;23.110;2023-11-18T03:28:30;0.30;;;0.30;;
39362;SDS011;25088;43.238;23.110;2023-11-18T03:30:56;0.30;;;0.30;;
39362;SDS011;25088;43.238;23.110;2023-11-18T03:33:22;0.32;;;0.32;;
39362;SDS011;25088;43.238;23.110;2023-11-18T03:35:47;0.30;;;0.30;;
39362;SDS011;25088;43.238;23.110;2023-11-18T03:38:13;0.30;;;0.30;;
39362;SDS011;25088;43.238;23.110;2023-11-18T03:40:40;0.38;;;0.38;;
39362;SDS011;25088;43.238;23.110;2023-11-18T03:43:06;0.30;;;0.30;;
39362;SDS011;25088;43.238;23.110;2023-11-18T03:45:32;0.30;;;0.30;;
39362;SDS011;25088;43.238;23.110;2023-11-18T03:47:58;0.30;;;0.30;;
39362;SDS011;25088;43.238;23.110;2023-11-18T03:50:26;0.30;;;0.30;;
39362;SDS011;25088;43.238;23.110;2023-11-18T03:52:51;0.38;;;0.38;;
39362;SDS011;25088;43.238;23.110;2023-11-18T03:55:17;0.30;;;0.30;;
39362;SDS011;25088;43.238;23.110;2023-11-18T03:57:43;0.30;;;0.30;;
39362;SDS011;25088;43.238;23.110;2023-11-18T04:00:10;0.38;;;0.38;;
39362;SDS011;25088;43.238;23.110;2023-11-18T04:02:36;0.40;;;0.40;;
39362;SDS011;25088;43.238;23.110;2023-11-18T04:05:02;0.40;;;0.40;;
39362;SDS011;25088;43.238;23.110;2023-11-18T04:07:29;0.40;;;0.40;;
39362;SDS011;25088;43.238;23.110;2023-11-18T04:09:54;0.30;;;0.30;;
39362;SDS011;25088;43.238;23.110;2023-11-18T04:12:20;0.30;;;0.30;;
39362;SDS011;25088;43.238;23.110;2023-11-18T04:14:45;0.30;;;0.30;;
39362;SDS011;25088;43.238;23.110;2023-11-18T04:17:10;0.30;;;0.30;;
39362;SDS011;25088;43.238;23.110;2023-11-18T04:19:36;0.30;;;0.30;;
39362;SDS011;25088;43.238;23.110;2023-11-18T04:22:02;0.30;;;0.30;;
39362;SDS011;25088;43.238;23.110;2023-11-18T04:24:29;0.30;;;0.30;;
39362;SDS011;25088;43.238;23.110;2023-11-18T04:26:55;0.30;;;0.30;;
39362;SDS011;25088;43.238;23.110;2023-11-18T04:29:20;0.30;;;0.30;;
39362;SDS011;25088;43.238;23.110;2023-11-18T04:31:48;0.30;;;0.30;;
39362;SDS011;25088;43.238;23.110;2023-11-18T04:34:13;0.30;;;0.30;;
39362;SDS011;25088;43.238;23.110;2023-11-18T04:36:40;0.30;;;0.30;;
39362;SDS011;25088;43.238;23.110;2023-11-18T04:39:06;0.30;;;0.30;;
39362;SDS011;25088;43.238;23.110;2023-11-18T04:41:32;0.30;;;0.30;;
39362;SDS011;25088;43.238;23.110;2023-11-18T04:43:57;0.30;;;0.30;;
39362;SDS011;25088;43.238;23.110;2023-11-18T04:46:23;0.40;;;0.40;;
39362;SDS011;25088;43.238;23.110;2023-11-18T04:48:48;0.40;;;0.40;;
39362;SDS011;25088;43.238;23.110;2023-11-18T04:51:14;0.30;;;0.30;;
39362;SDS011;25088;43.238;23.110;2023-11-18T04:53:39;0.30;;;0.30;;
39362;SDS011;25088;43.238;23.110;2023-11-18T04:56:05;0.30;;;0.30;;
39362;SDS011;25088;43.238;23.110;2023-11-18T04:58:35;0.30;;;0.30;;
39362;SDS011;25088;43.238;23.110;2023-11-18T05:01:02;0.30;;;0.30;;
39362;SDS011;25088;43.238;23.110;2023-11-18T05:03:29;0.30;;;0.30;;
39362;SDS011;25088;43.238;23.110;2023-11-18T05:05:55;0.35;;;0.35;;
39362;SDS011;25088;43.238;23.110;2023-11-18T05:08:21;0.30;;;0.30;;
39362;SDS011;25088;43.238;23.110;2023-11-18T05:10:50;0.30;;;0.30;;
39362;SDS011;25088;43.238;23.110;2023-11-18T05:13:16;0.30;;;0.30;;
39362;SDS011;25088;43.238;23.110;2023-11-18T05:15:45;0.30;;;0.30;;
39362;SDS011;25088;43.238;23.110;2023-11-18T05:18:14;0.30;;;0.30;;
39362;SDS011;25088;43.238;23.110;2023-11-18T05:20:44;0.40;;;0.40;;
39362;SDS011;25088;43.238;23.110;2023-11-18T05:23:09;0.30;;;0.30;;
39362;SDS011;25088;43.238;23.110;2023-11-18T05:25:36;0.30;;;0.30;;
39362;SDS011;25088;43.238;23.110;2023-11-18T05:28:02;0.30;;;0.30;;
39362;SDS011;25088;43.238;23.110;2023-11-18T05:30:28;0.30;;;0.30;;
39362;SDS011;25088;43.238;23.110;2023-11-18T05:32:55;0.30;;;0.30;;
39362;SDS011;25088;43.238;23.110;2023-11-18T05:35:23;0.30;;;0.30;;
39362;SDS011;25088;43.238;23.110;2023-11-18T05:37:53;0.30;;;0.30;;
39362;SDS011;25088;43.238;23.110;2023-11-18T05:40:19;0.30;;;0.30;;
39362;SDS011;25088;43.238;23.110;2023-11-18T05:42:45;0.30;;;0.30;;
39362;SDS011;25088;43.238;23.110;2023-11-18T05:45:13;0.30;;;0.30;;
39362;SDS011;25088;43.238;23.110;2023-11-18T05:47:52;0.30;;;0.30;;
39362;SDS011;25088;43.238;23.110;2023-11-18T05:50:22;0.30;;;0.30;;
39362;SDS011;25088;43.238;23.110;2023-11-18T05:52:49;0.30;;;0.30;;
39362;SDS011;25088;43.238;23.110;2023-11-18T05:55:15;0.30;;;0.30;;
39362;SDS011;25088;43.238;23.110;2023-11-18T05:57:41;0.30;;;0.30;;
39362;SDS011;25088;43.238;23.110;2023-11-18T06:00:14;0.30;;;0.30;;
39362;SDS011;25088;43.238;23.110;2023-11-18T06:02:41;0.30;;;0.30;;
39362;SDS011;25088;43.238;23.110;2023-11-18T06:05:07;0.30;;;0.30;;
39362;SDS011;25088;43.238;23.110;2023-11-18T06:07:33;0.30;;;0.30;;
39362;SDS011;25088;43.238;23.110;2023-11-18T06:10:00;0.30;;;0.30;;
39362;SDS011;25088;43.238;23.110;2023-11-18T06:12:26;0.30;;;0.30;;
39362;SDS011;25088;43.238;23.110;2023-11-18T06:14:52;0.30;;;0.30;;
39362;SDS011;25088;43.238;23.110;2023-11-18T06:17:17;0.30;;;0.30;;
39362;SDS011;25088;43.238;23.110;2023-11-18T06:19:44;0.30;;;0.30;;
39362;SDS011;25088;43.238;23.110;2023-11-18T06:22:10;0.20;;;0.20;;
39362;SDS011;25088;43.238;23.110;2023-11-18T06:24:35;0.20;;;0.20;;
39362;SDS011;25088;43.238;23.110;2023-11-18T06:27:04;0.20;;;0.20;;
39362;SDS011;25088;43.238;23.110;2023-11-18T06:29:30;0.20;;;0.20;;
39362;SDS011;25088;43.238;23.110;2023-11-18T06:31:56;0.20;;;0.20;;
39362;SDS011;25088;43.238;23.110;2023-11-18T06:34:21;0.20;;;0.20;;
39362;SDS011;25088;43.238;23.110;2023-11-18T06:36:47;0.20;;;0.20;;
39362;SDS011;25088;43.238;23.110;2023-11-18T06:39:12;0.20;;;0.20;;
39362;SDS011;25088;43.238;23.110;2023-11-18T06:41:38;0.20;;;0.20;;
39362;SDS011;25088;43.238;23.110;2023-11-18T06:44:13;0.20;;;0.20;;
39362;SDS011;25088;43.238;23.110;2023-11-18T06:46:43;0.20;;;0.20;;
39362;SDS011;25088;43.238;23.110;2023-11-18T06:49:09;0.20;;;0.20;;
39362;SDS011;25088;43.238;23.110;2023-11-18T06:51:40;0.30;;;0.30;;
39362;SDS011;25088;43.238;23.110;2023-11-18T06:54:06;0.20;;;0.20;;
39362;SDS011;25088;43.238;23.110;2023-11-18T06:56:38;0.30;;;0.30;;
39362;SDS011;25088;43.238;23.110;2023-11-18T06:59:07;0.30;;;0.30;;
39362;SDS011;25088;43.238;23.110;2023-11-18T07:01:35;0.30;;;0.30;;
39362;SDS011;25088;43.238;23.110;2023-11-18T07:04:00;0.30;;;0.30;;
39362;SDS011;25088;43.238;23.110;2023-11-18T07:06:26;0.20;;;0.20;;
39362;SDS011;25088;43.238;23.110;2023-11-18T07:08:52;0.30;;;0.30;;
39362;SDS011;25088;43.238;23.110;2023-11-18T07:11:19;0.20;;;0.20;;
39362;SDS011;25088;43.238;23.110;2023-11-18T07:13:46;0.30;;;0.30;;
39362;SDS011;25088;43.238;23.110;2023-11-18T07:16:13;0.30;;;0.30;;
39362;SDS011;25088;43.238;23.110;2023-11-18T07:18:39;0.30;;;0.30;;
39362;SDS011;25088;43.238;23.110;2023-11-18T07:21:05;0.30;;;0.30;;
39362;SDS011;25088;43.238;23.110;2023-11-18T07:23:32;0.20;;;0.20;;
39362;SDS011;25088;43.238;23.110;2023-11-18T07:25:58;0.30;;;0.30;;
39362;SDS011;25088;43.238;23.110;2023-11-18T07:28:24;0.30;;;0.30;;
39362;SDS011;25088;43.238;23.110;2023-11-18T07:30:49;0.22;;;0.22;;
39362;SDS011;25088;43.238;23.110;2023-11-18T07:33:15;0.25;;;0.25;;
39362;SDS011;25088;43.238;23.110;2023-11-18T07:35:44;0.30;;;0.30;;
39362;SDS011;25088;43.238;23.110;2023-11-18T07:38:14;0.20;;;0.20;;
39362;SDS011;25088;43.238;23.110;2023-11-18T07:40:41;0.20;;;0.20;;
39362;SDS011;25088;43.238;23.110;2023-11-18T07:43:13;0.20;;;0.20;;
39362;SDS011;25088;43.238;23.110;2023-11-18T07:45:39;0.20;;;0.20;;
39362;SDS011;25088;43.238;23.110;2023-11-18T07:48:05;0.30;;;0.30;;
39362;SDS011;25088;43.238;23.110;2023-11-18T07:50:40;0.22;;;0.22;;
39362;SDS011;25088;43.238;23.110;2023-11-18T07:53:06;0.30;;;0.30;;
39362;SDS011;25088;43.238;23.110;2023-11-18T07:55:33;0.20;;;0.20;;
39362;SDS011;25088;43.238;23.110;2023-11-18T07:58:02;0.20;;;0.20;;
39362;SDS011;25088;43.238;23.110;2023-11-18T08:00:29;0.30;;;0.30;;
39362;SDS011;25088;43.238;23.110;2023-11-18T08:02:56;0.30;;;0.30;;
39362;SDS011;25088;43.238;23.110;2023-11-18T08:05:22;0.25;;;0.25;;
39362;SDS011;25088;43.238;23.110;2023-11-18T08:07:48;0.20;;;0.20;;
39362;SDS011;25088;43.238;23.110;2023-11-18T08:10:14;0.30;;;0.30;;
39362;SDS011;25088;43.238;23.110;2023-11-18T08:12:43;0.20;;;0.20;;
39362;SDS011;25088;43.238;23.110;2023-11-18T08:15:10;0.20;;;0.20;;
39362;SDS011;25088;43.238;23.110;2023-11-18T08:17:36;0.20;;;0.20;;
39362;SDS011;25088;43.238;23.110;2023-11-18T08:20:02;0.20;;;0.20;;
39362;SDS011;25088;43.238;23.110;2023-11-18T08:22:40;0.30;;;0.30;;
39362;SDS011;25088;43.238;23.110;2023-11-18T08:25:07;0.20;;;0.20;;
39362;SDS011;25088;43.238;23.110;2023-11-18T08:27:33;0.20;;;0.20;;
39362;SDS011;25088;43.238;23.110;2023-11-18T08:30:00;0.20;;;0.20;;
39362;SDS011;25088;43.238;23.110;2023-11-18T08:32:26;0.20;;;0.20;;
39362;SDS011;25088;43.238;23.110;2023-11-18T08:34:51;0.20;;;0.20;;
39362;SDS011;25088;43.238;23.110;2023-11-18T08:37:17;0.20;;;0.20;;
39362;SDS011;25088;43.238;23.110;2023-11-18T08:39:42;0.20;;;0.20;;
39362;SDS011;25088;43.238;23.110;2023-11-18T08:42:08;0.20;;;0.20;;
39362;SDS011;25088;43.238;23.110;2023-11-18T08:44:33;0.20;;;0.20;;
39362;SDS011;25088;43.238;23.110;2023-11-18T08:46:59;0.20;;;0.20;;
39362;SDS011;25088;43.238;23.110;2023-11-18T08:49:24;0.30;;;0.30;;
39362;SDS011;25088;43.238;23.110;2023-11-18T08:51:50;0.28;;;0.28;;
39362;SDS011;25088;43.238;23.110;2023-11-18T08:54:24;0.30;;;0.30;;
39362;SDS011;25088;43.238;23.110;2023-11-18T08:56:53;0.25;;;0.25;;
39362;SDS011;25088;43.238;23.110;2023-11-18T08:59:20;0.20;;;0.20;;
39362;SDS011;25088;43.238;23.110;2023-11-18T09:01:52;0.30;;;0.30;;
39362;SDS011;25088;43.238;23.110;2023-11-18T09:04:27;0.20;;;0.20;;
39362;SDS011;25088;43.238;23.110;2023-11-18T09:06:53;0.30;;;0.30;;
39362;SDS011;25088;43.238;23.110;2023-11-18T09:11:54;0.30;;;0.30;;
39362;SDS011;25088;43.238;23.110;2023-11-18T09:14:26;0.20;;;0.20;;
39362;SDS011;25088;43.238;23.110;2023-11-18T09:16:52;0.20;;;0.20;;
39362;SDS011;25088;43.238;23.110;2023-11-18T09:19:20;0.20;;;0.20;;
39362;SDS011;25088;43.238;23.110;2023-11-18T09:21:46;0.20;;;0.20;;
39362;SDS011;25088;43.238;23.110;2023-11-18T09:24:12;0.20;;;0.20;;
39362;SDS011;25088;43.238;23.110;2023-11-18T09:26:39;0.20;;;0.20;;
39362;SDS011;25088;43.238;23.110;2023-11-18T09:29:05;0.20;;;0.20;;
39362;SDS011;25088;43.238;23.110;2023-11-18T09:31:36;0.20;;;0.20;;
39362;SDS011;25088;43.238;23.110;2023-11-18T09:34:02;0.22;;;0.22;;
39362;SDS011;25088;43.238;23.110;2023-11-18T09:36:31;0.30;;;0.30;;
39362;SDS011;25088;43.238;23.110;2023-11-18T09:38:58;0.20;;;0.20;;
39362;SDS011;25088;43.238;23.110;2023-11-18T09:41:24;0.20;;;0.20;;
39362;SDS011;25088;43.238;23.110;2023-11-18T09:43:52;0.20;;;0.20;;
39362;SDS011;25088;43.238;23.110;2023-11-18T09:46:27;0.25;;;0.25;;
39362;SDS011;25088;43.238;23.110;2023-11-18T09:51:43;0.20;;;0.20;;
39362;SDS011;25088;43.238;23.110;2023-11-18T09:54:27;0.20;;;0.20;;
39362;SDS011;25088;43.238;23.110;2023-11-18T09:59:44;0.20;;;0.20;;
39362;SDS011;25088;43.238;23.110;2023-11-18T10:02:20;0.20;;;0.20;;
39362;SDS011;25088;43.238;23.110;2023-11-18T10:04:48;0.20;;;0.20;;
39362;SDS011;25088;43.238;23.110;2023-11-18T10:07:23;0.20;;;0.20;;
39362;SDS011;25088;43.238;23.110;2023-11-18T10:09:54;0.20;;;0.20;;
39362;SDS011;25088;43.238;23.110;2023-11-18T10:12:22;0.20;;;0.20;;
39362;SDS011;25088;43.238;23.110;2023-11-18T10:14:49;0.20;;;0.20;;
39362;SDS011;25088;43.238;23.110;2023-11-18T10:17:17;0.20;;;0.20;;
39362;SDS011;25088;43.238;23.110;2023-11-18T10:22:21;0.20;;;0.20;;
39362;SDS011;25088;43.238;23.110;2023-11-18T10:24:48;0.20;;;0.20;;
39362;SDS011;25088;43.238;23.110;2023-11-18T10:27:14;0.20;;;0.20;;
39362;SDS011;25088;43.238;23.110;2023-11-18T10:29:40;0.30;;;0.30;;
39362;SDS011;25088;43.238;23.110;2023-11-18T10:32:06;0.20;;;0.20;;
39362;SDS011;25088;43.238;23.110;2023-11-18T10:34:41;0.20;;;0.20;;
39362;SDS011;25088;43.238;23.110;2023-11-18T10:37:07;0.22;;;0.22;;
39362;SDS011;25088;43.238;23.110;2023-11-18T10:39:35;0.20;;;0.20;;
39362;SDS011;25088;43.238;23.110;2023-11-18T10:42:02;0.30;;;0.30;;
39362;SDS011;25088;43.238;23.110;2023-11-18T10:44:28;0.28;;;0.28;;
39362;SDS011;25088;43.238;23.110;2023-11-18T10:46:56;0.20;;;0.20;;
39362;SDS011;25088;43.238;23.110;2023-11-18T10:49:29;0.20;;;0.20;;
39362;SDS011;25088;43.238;23.110;2023-11-18T10:52:02;0.20;;;0.20;;
39362;SDS011;25088;43.238;23.110;2023-11-18T10:54:32;0.20;;;0.20;;
39362;SDS011;25088;43.238;23.110;2023-11-18T10:57:00;0.20;;;0.20;;
39362;SDS011;25088;43.238;23.110;2023-11-18T10:59:32;0.20;;;0.20;;
39362;SDS011;25088;43.238;23.110;2023-11-18T11:01:58;0.28;;;0.28;;
39362;SDS011;25088;43.238;23.110;2023-11-18T11:04:23;0.20;;;0.20;;
39362;SDS011;25088;43.238;23.110;2023-11-18T11:06:49;0.20;;;0.20;;
39362;SDS011;25088;43.238;23.110;2023-11-18T11:09:21;0.20;;;0.20;;
39362;SDS011;25088;43.238;23.110;2023-11-18T11:12:00;0.20;;;0.20;;
39362;SDS011;25088;43.238;23.110;2023-11-18T11:17:06;0.20;;;0.20;;
39362;SDS011;25088;43.238;23.110;2023-11-18T11:19:50;0.20;;;0.20;;
39362;SDS011;25088;43.238;23.110;2023-11-18T11:22:24;0.30;;;0.30;;
39362;SDS011;25088;43.238;23.110;2023-11-18T11:30:45;0.20;;;0.20;;
39362;SDS011;25088;43.238;23.110;2023-11-18T11:35:57;0.20;;;0.20;;
39362;SDS011;25088;43.238;23.110;2023-11-18T11:38:27;0.20;;;0.20;;
39362;SDS011;25088;43.238;23.110;2023-11-18T11:40:54;0.20;;;0.20;;
39362;SDS011;25088;43.238;23.110;2023-11-18T11:43:20;0.20;;;0.20;;
39362;SDS011;25088;43.238;23.110;2023-11-18T11:45:52;0.20;;;0.20;;
39362;SDS011;25088;43.238;23.110;2023-11-18T11:48:20;0.20;;;0.20;;
39362;SDS011;25088;43.238;23.110;2023-11-18T11:54:06;0.20;;;0.20;;
39362;SDS011;25088;43.238;23.110;2023-11-18T11:56:43;0.20;;;0.20;;
39362;SDS011;25088;43.238;23.110;2023-11-18T11:59:12;0.20;;;0.20;;
39362;SDS011;25088;43.238;23.110;2023-11-18T12:01:40;0.20;;;0.20;;
39362;SDS011;25088;43.238;23.110;2023-11-18T12:04:10;0.20;;;0.20;;
39362;SDS011;25088;43.238;23.110;2023-11-18T12:06:46;0.20;;;0.20;;
39362;SDS011;25088;43.238;23.110;2023-11-18T12:09:13;0.20;;;0.20;;
39362;SDS011;25088;43.238;23.110;2023-11-18T12:11:48;0.20;;;0.20;;
39362;SDS011;25088;43.238;23.110;2023-11-18T12:14:14;0.20;;;0.20;;
39362;SDS011;25088;43.238;23.110;2023-11-18T12:19:39;0.20;;;0.20;;
39362;SDS011;25088;43.238;23.110;2023-11-18T12:22:14;0.20;;;0.20;;
39362;SDS011;25088;43.238;23.110;2023-11-18T12:24:44;0.20;;;0.20;;
39362;SDS011;25088;43.238;23.110;2023-11-18T12:27:12;0.20;;;0.20;;
39362;SDS011;25088;43.238;23.110;2023-11-18T12:29:41;0.20;;;0.20;;
39362;SDS011;25088;43.238;23.110;2023-11-18T12:32:10;0.20;;;0.20;;
39362;SDS011;25088;43.238;23.110;2023-11-18T12:34:53;0.20;;;0.20;;
39362;SDS011;25088;43.238;23.110;2023-11-18T12:38:26;0.20;;;0.20;;
39362;SDS011;25088;43.238;23.110;2023-11-18T12:48:15;0.20;;;0.20;;
39362;SDS011;25088;43.238;23.110;2023-11-18T12:50:51;0.20;;;0.20;;
39362;SDS011;25088;43.238;23.110;2023-11-18T12:53:19;0.20;;;0.20;;
39362;SDS011;25088;43.238;23.110;2023-11-18T12:55:52;0.30;;;0.30;;
39362;SDS011;25088;43.238;23.110;2023-11-18T12:58:17;0.30;;;0.30;;
39362;SDS011;25088;43.238;23.110;2023-11-18T13:00:43;0.20;;;0.20;;
39362;SDS011;25088;43.238;23.110;2023-11-18T13:03:10;0.30;;;0.30;;
39362;SDS011;25088;43.238;23.110;2023-11-18T13:05:36;0.30;;;0.30;;
39362;SDS011;25088;43.238;23.110;2023-11-18T13:08:03;0.30;;;0.30;;
39362;SDS011;25088;43.238;23.110;2023-11-18T13:10:29;0.28;;;0.28;;
39362;SDS011;25088;43.238;23.110;2023-11-18T13:12:55;0.30;;;0.30;;
39362;SDS011;25088;43.238;23.110;2023-11-18T13:15:23;0.20;;;0.20;;
39362;SDS011;25088;43.238;23.110;2023-11-18T13:20:24;0.30;;;0.30;;
39362;SDS011;25088;43.238;23.110;2023-11-18T13:22:51;0.30;;;0.30;;
39362;SDS011;25088;43.238;23.110;2023-11-18T13:25:18;0.30;;;0.30;;
39362;SDS011;25088;43.238;23.110;2023-11-18T13:27:43;0.30;;;0.30;;
39362;SDS011;25088;43.238;23.110;2023-11-18T13:30:10;0.30;;;0.30;;
39362;SDS011;25088;43.238;23.110;2023-11-18T13:32:41;0.30;;;0.30;;
39362;SDS011;25088;43.238;23.110;2023-11-18T13:35:07;0.30;;;0.30;;
39362;SDS011;25088;43.238;23.110;2023-11-18T13:37:33;0.30;;;0.30;;
39362;SDS011;25088;43.238;23.110;2023-11-18T13:39:59;0.30;;;0.30;;
39362;SDS011;25088;43.238;23.110;2023-11-18T13:42:25;0.30;;;0.30;;
39362;SDS011;25088;43.238;23.110;2023-11-18T13:44:53;0.30;;;0.30;;
39362;SDS011;25088;43.238;23.110;2023-11-18T13:47:26;0.30;;;0.30;;
39362;SDS011;25088;43.238;23.110;2023-11-18T13:49:56;0.30;;;0.30;;
39362;SDS011;25088;43.238;23.110;2023-11-18T13:52:23;0.30;;;0.30;;
39362;SDS011;25088;43.238;23.110;2023-11-18T13:54:50;0.30;;;0.30;;
39362;SDS011;25088;43.238;23.110;2023-11-18T13:57:20;0.30;;;0.30;;
39362;SDS011;25088;43.238;23.110;2023-11-18T13:59:48;0.30;;;0.30;;
39362;SDS011;25088;43.238;23.110;2023-11-18T14:02:15;0.30;;;0.30;;
39362;SDS011;25088;43.238;23.110;2023-11-18T14:04:41;0.30;;;0.30;;
39362;SDS011;25088;43.238;23.110;2023-11-18T14:07:14;0.30;;;0.30;;
39362;SDS011;25088;43.238;23.110;2023-11-18T14:09:42;0.30;;;0.30;;
39362;SDS011;25088;43.238;23.110;2023-11-18T14:12:11;0.30;;;0.30;;
39362;SDS011;25088;43.238;23.110;2023-11-18T14:14:37;0.28;;;0.28;;
39362;SDS011;25088;43.238;23.110;2023-11-18T14:17:03;0.30;;;0.30;;
39362;SDS011;25088;43.238;23.110;2023-11-18T14:19:31;0.30;;;0.30;;
39362;SDS011;25088;43.238;23.110;2023-11-18T14:21:57;0.28;;;0.28;;
39362;SDS011;25088;43.238;23.110;2023-11-18T14:24:22;0.30;;;0.30;;
39362;SDS011;25088;43.238;23.110;2023-11-18T14:26:52;0.30;;;0.30;;
39362;SDS011;25088;43.238;23.110;2023-11-18T14:29:21;0.30;;;0.30;;
39362;SDS011;25088;43.238;23.110;2023-11-18T14:31:48;0.30;;;0.30;;
39362;SDS011;25088;43.238;23.110;2023-11-18T14:34:14;0.30;;;0.30;;
39362;SDS011;25088;43.238;23.110;2023-11-18T14:36:40;0.30;;;0.30;;
39362;SDS011;25088;43.238;23.110;2023-11-18T14:39:06;0.20;;;0.20;;
39362;SDS011;25088;43.238;23.110;2023-11-18T14:41:35;0.30;;;0.30;;
39362;SDS011;25088;43.238;23.110;2023-11-18T14:44:01;0.30;;;0.30;;
39362;SDS011;25088;43.238;23.110;2023-11-18T14:46:29;0.30;;;0.30;;
39362;SDS011;25088;43.238;23.110;2023-11-18T14:48:56;0.30;;;0.30;;
39362;SDS011;25088;43.238;23.110;2023-11-18T14:51:22;0.30;;;0.30;;
39362;SDS011;25088;43.238;23.110;2023-11-18T14:53:47;0.30;;;0.30;;
39362;SDS011;25088;43.238;23.110;2023-11-18T14:56:13;0.30;;;0.30;;
39362;SDS011;25088;43.238;23.110;2023-11-18T14:58:39;0.30;;;0.30;;
39362;SDS011;25088;43.238;23.110;2023-11-18T15:01:05;0.30;;;0.30;;
39362;SDS011;25088;43.238;23.110;2023-11-18T15:03:33;0.30;;;0.30;;
39362;SDS011;25088;43.238;23.110;2023-11-18T15:06:00;0.30;;;0.30;;
39362;SDS011;25088;43.238;23.110;2023-11-18T15:08:25;0.30;;;0.30;;
39362;SDS011;25088;43.238;23.110;2023-11-18T15:10:51;0.30;;;0.30;;
39362;SDS011;25088;43.238;23.110;2023-11-18T15:13:16;0.30;;;0.30;;
39362;SDS011;25088;43.238;23.110;2023-11-18T15:15:42;0.30;;;0.30;;